Details From DRRN - DIORI HAMANI
To DRRM - MARADI
Flight Number -
Tags generated
Created
Modified
Stats Distance 290 nm / 537 km
Max Altitude 23,500 ft / 7,163 m
Waypoints 6
Social Downloads 16
Likes 0
Share

Download

Looking for another format? Having issues loading an existing format? Contact us
Advertisement - Login to hide

Notes

Basic altitude profile: - Ascent Rate: 2500ft/min - Ascent Speed: 250kts - Cruise Altitude: 35000ft - Cruise Speed: 420kts - Descent Rate: 1500ft/min - Descent Speed: 250kts Options: - Use NATs: yes - Use PACOTS: yes - Use low airways: yes - Use high airways: yes

Route

DRRN NY G854G POMPA DRRM

ID Type Via Altitude (ft/m) Position (lat/lon) Dist (leg/tot) Name
O DRRN APT - 0 / 0 13.48297 / 2.18109 - / 0 nm DIORI HAMANI
NY VOR - 500 / 152 13.48333 / 2.20639 1 / 1 nm NIAMEY VOR-DME
POLKI FIX G854G (AWY-LO) 23,500 / 7,163 13.55611 / 3.57306 79 / 81 nm
DOGON FIX G854G (AWY-LO) 23,500 / 7,163 13.59500 / 4.36500 46 / 127 nm
POMPA FIX G854G (AWY-LO) 11,100 / 3,383 13.67667 / 6.25000 110 / 237 nm
O DRRM APT - 0 / 0 13.50253 / 7.12675 52 / 290 nm MARADI

Altitude Profile

Advertisement - Login to hide

Weather


0- 5 10 15 20 25 30 35+ Temperature / °C

Clouds and Precipitation
Forecast for 2022-12-03 12:00 UTC. Updated 2 hours ago

Ground ~20,000 ft ~40,000 ft Winds

DRRN

Details ICAO DRRN (NIM)
Name DIORI HAMANI
Region Niger
Timezone Africa/Niamey (UTC+1.0)
Stats Elevation 731 ft / 223 m (AMSL)
Location 13.483700° 2.180040°
Runways 2
Magnetic Variation 0.756° W

METAR

DRRN 031100Z 12007KT CAVOK 35/02 Q1010 NOSIG

Decode

TAF

TAF AMD DRRN 030635Z 0307/0412 08005KT 6000 NSC TEMPO 0306/0309 3500 DU TEMPO 0309/0312 10015KT 4800 BLDU TEMPO 0318/0320 3500 DU

Decode

Departure Runways

ID Width Length Bearing (true/mag) Surface Threshold Overrun Markings Lighting
09L 98 ft / 30 m 4,808 ft / 1,465 m 87.02° / 87.78° DIRT 0 ft / 0 m 0 ft / 0 m NONE CENTERLINE EDGE THRESHOLD MALSF
09R 148 ft / 45 m 10,850 ft / 3,307 m 87.24° / 87.99° ASPHALT 1,017 ft / 310 m 0 ft / 0 m PREC-APP CENTERLINE EDGE THRESHOLD MALSF
27L 148 ft / 45 m 10,850 ft / 3,307 m 267.25° / 268.00° ASPHALT 0 ft / 0 m 0 ft / 0 m PREC-APP CENTERLINE EDGE THRESHOLD MALSF
27R 98 ft / 30 m 4,808 ft / 1,465 m 267.02° / 267.78° DIRT 0 ft / 0 m 0 ft / 0 m NONE CENTERLINE EDGE THRESHOLD MALSF

DRRM

Details ICAO DRRM (MFQ)
Name Maradi
Region Niger
Timezone Africa/Niamey (UTC+1.0)
Stats Elevation 1,244 ft / 379 m (AMSL)
Location 13.502600° 7.126590°
Runways 1
Magnetic Variation 0.280° E

METAR

DRRM 031100Z 13008KT CAVOK 34/05 Q1010

Decode

TAF

Not found

Destination Runways

ID Width Length Bearing (true/mag) Surface Threshold Overrun Markings Lighting
08 98 ft / 30 m 6,068 ft / 1,850 m 83.79° / 83.51° ASPHALT 0 ft / 0 m 0 ft / 0 m PREC-APP
26 98 ft / 30 m 6,068 ft / 1,850 m 263.79° / 263.51° ASPHALT 0 ft / 0 m 0 ft / 0 m PREC-APP

Popular Alternatives